Hlavní strana
METAR-TAF:

METAR-TAF

Letiště :

Letiště Kišiněv

Kišiněv, Moldavsko

zeměpisná šířka: 46-55-40N, zeměpisná délka: 028-55-51E, výška: 122 m

Aktuální stav počasí

Zpráva byla vytvořena před 57 minutami, v 01:30 UTC
Severoseverozápadní vítr 5 kt
Teplota 8°C
Vlhkost vzduchu 66%
Tlak 1029 hPa
Viditelnost 10 km a více
Žádná oblačnost pod 1500 m, nevyskytují se cumulonimby.

METAR: LUKK 220130Z 33005KT CAVOK 08/02 Q1029 R26/D NOSIG

Čas: 04:27 (02:27 UTC)

Předpověď počasí

Zpráva byla vytvořena před 3 hodinami a 7 minutami, v 23:20 UTC
Předpověď platná od 22 v 00 UTC do 22 v 24 UTC
Severozápadní vítr 6 kt
Viditelnost 10 km a více
Polojasno ve výšce 4000 ft
Změna
od 22 v 08 UTC do 22 v 10 UTC
Severozápadní vítr 16 kt s nárazy do 26 kt

TAF: LUKK 212320Z 2200/2224 32006KT 9999 SCT040 BECMG 2208/2210 32016G26KT

Stav a předpovědi počasí z více než 4 000 letišť (zprávy METAR a TAF).

Červené a žluté tečky na mapě představují dostupné meteorologické stanice.

Když kurzor umístíte na tečku, zobrazí se název stanice.

Pak kliknutím zobrazíte stav a předpověď počasí.

Chcete-li změnit mapu, kliknutím na zelené tlačítko se znaménkem +mapu přiblížíte, kliknutím na zelené tlačítko se znaménkem – mapu oddálíte a kliknutím na zelené šipky přejdete na sousední mapy.


METAR-TAF: